sensor_id;sensor_type;location;lat;lon;timestamp;pressure;altitude;pressure_sealevel;temperature;humidity
42067;BME280;27734;47.028;28.820;2022-12-07T00:00:48;100655.24;;;-0.02;100.00
42067;BME280;27734;47.028;28.820;2022-12-07T00:03:19;100651.86;;;-0.01;100.00
42067;BME280;27734;47.028;28.820;2022-12-07T00:05:50;100654.56;;;0.01;100.00
42067;BME280;27734;47.028;28.820;2022-12-07T00:08:22;100653.80;;;0.02;100.00
42067;BME280;27734;47.028;28.820;2022-12-07T00:10:53;100636.63;;;0.03;100.00
42067;BME280;27734;47.028;28.820;2022-12-07T00:13:24;100641.02;;;0.04;100.00
42067;BME280;27734;47.028;28.820;2022-12-07T00:15:55;100639.20;;;0.03;100.00
42067;BME280;27734;47.028;28.820;2022-12-07T00:18:26;100631.47;;;0.03;100.00
42067;BME280;27734;47.028;28.820;2022-12-07T00:21:02;100639.33;;;0.04;100.00
42067;BME280;27734;47.028;28.820;2022-12-07T00:23:37;100632.48;;;0.05;100.00
42067;BME280;27734;47.028;28.820;2022-12-07T00:26:10;100635.05;;;0.05;100.00
42067;BME280;27734;47.028;28.820;2022-12-07T00:28:41;100626.55;;;0.06;100.00
42067;BME280;27734;47.028;28.820;2022-12-07T00:31:16;100620.63;;;0.07;100.00
42067;BME280;27734;47.028;28.820;2022-12-07T00:33:48;100617.24;;;0.08;100.00
42067;BME280;27734;47.028;28.820;2022-12-07T00:36:21;100617.36;;;0.09;100.00
42067;BME280;27734;47.028;28.820;2022-12-07T00:38:53;100613.13;;;0.10;100.00
42067;BME280;27734;47.028;28.820;2022-12-07T00:41:25;100615.83;;;0.11;100.00
42067;BME280;27734;47.028;28.820;2022-12-07T00:43:57;100608.09;;;0.11;100.00
42067;BME280;27734;47.028;28.820;2022-12-07T00:46:29;100606.39;;;0.12;100.00
42067;BME280;27734;47.028;28.820;2022-12-07T00:49:00;100601.23;;;0.12;100.00
42067;BME280;27734;47.028;28.820;2022-12-07T00:51:31;100603.05;;;0.13;100.00
42067;BME280;27734;47.028;28.820;2022-12-07T00:54:02;100604.83;;;0.14;100.00
42067;BME280;27734;47.028;28.820;2022-12-07T00:56:36;100592.04;;;0.15;100.00
42067;BME280;27734;47.028;28.820;2022-12-07T00:59:07;100592.16;;;0.17;100.00
42067;BME280;27734;47.028;28.820;2022-12-07T01:01:38;100593.20;;;0.19;100.00
42067;BME280;27734;47.028;28.820;2022-12-07T01:04:09;100588.94;;;0.20;100.00
42067;BME280;27734;47.028;28.820;2022-12-07T01:06:40;100584.66;;;0.20;100.00
42067;BME280;27734;47.028;28.820;2022-12-07T01:09:11;100583.00;;;0.21;100.00
42067;BME280;27734;47.028;28.820;2022-12-07T01:11:42;100586.47;;;0.21;100.00
42067;BME280;27734;47.028;28.820;2022-12-07T01:14:13;100577.04;;;0.22;100.00
42067;BME280;27734;47.028;28.820;2022-12-07T01:16:44;100580.55;;;0.22;100.00
42067;BME280;27734;47.028;28.820;2022-12-07T01:19:16;100577.96;;;0.22;100.00
42067;BME280;27734;47.028;28.820;2022-12-07T01:21:47;100572.80;;;0.22;100.00
42067;BME280;27734;47.028;28.820;2022-12-07T01:24:18;100571.11;;;0.23;100.00
42067;BME280;27734;47.028;28.820;2022-12-07T01:26:50;100572.92;;;0.24;100.00
42067;BME280;27734;47.028;28.820;2022-12-07T01:29:21;100573.81;;;0.24;100.00
42067;BME280;27734;47.028;28.820;2022-12-07T01:31:52;100574.70;;;0.25;100.00
42067;BME280;27734;47.028;28.820;2022-12-07T01:34:23;100572.23;;;0.26;100.00
42067;BME280;27734;47.028;28.820;2022-12-07T01:36:54;100565.30;;;0.25;100.00
42067;BME280;27734;47.028;28.820;2022-12-07T01:39:26;100566.30;;;0.27;100.00
42067;BME280;27734;47.028;28.820;2022-12-07T01:41:57;100560.38;;;0.28;100.00
42067;BME280;27734;47.028;28.820;2022-12-07T01:44:29;100543.97;;;0.28;100.00
42067;BME280;27734;47.028;28.820;2022-12-07T01:47:03;100553.52;;;0.29;100.00
42067;BME280;27734;47.028;28.820;2022-12-07T01:49:37;100562.15;;;0.29;100.00
42067;BME280;27734;47.028;28.820;2022-12-07T01:52:15;100545.89;;;0.30;100.00
42067;BME280;27734;47.028;28.820;2022-12-07T01:54:51;100538.15;;;0.30;100.00
42067;BME280;27734;47.028;28.820;2022-12-07T01:57:24;100542.54;;;0.31;100.00
42067;BME280;27734;47.028;28.820;2022-12-07T01:59:57;100539.16;;;0.32;100.00
42067;BME280;27734;47.028;28.820;2022-12-07T02:02:45;100527.17;;;0.33;100.00
42067;BME280;27734;47.028;28.820;2022-12-07T02:05:19;100538.50;;;0.35;100.00
42067;BME280;27734;47.028;28.820;2022-12-07T02:07:53;100537.73;;;0.36;100.00
42067;BME280;27734;47.028;28.820;2022-12-07T02:10:27;100536.05;;;0.37;100.00
42067;BME280;27734;47.028;28.820;2022-12-07T02:12:58;100534.34;;;0.37;100.00
42067;BME280;27734;47.028;28.820;2022-12-07T02:15:41;100532.69;;;0.38;100.00
42067;BME280;27734;47.028;28.820;2022-12-07T02:18:22;100532.81;;;0.39;100.00
42067;BME280;27734;47.028;28.820;2022-12-07T02:20:59;100530.22;;;0.39;100.00
42067;BME280;27734;47.028;28.820;2022-12-07T02:23:45;100530.34;;;0.41;100.00
42067;BME280;27734;47.028;28.820;2022-12-07T02:29:49;100521.02;;;0.43;100.00
42067;BME280;27734;47.028;28.820;2022-12-07T02:32:27;100520.13;;;0.42;100.00
42067;BME280;27734;47.028;28.820;2022-12-07T02:35:04;100518.44;;;0.43;100.00
42067;BME280;27734;47.028;28.820;2022-12-07T02:37:41;100529.77;;;0.45;100.00
42067;BME280;27734;47.028;28.820;2022-12-07T02:40:18;100517.78;;;0.45;100.00
42067;BME280;27734;47.028;28.820;2022-12-07T02:42:53;100518.67;;;0.46;100.00
42067;BME280;27734;47.028;28.820;2022-12-07T02:45:27;100518.67;;;0.46;100.00
42067;BME280;27734;47.028;28.820;2022-12-07T02:48:01;100512.73;;;0.47;100.00
42067;BME280;27734;47.028;28.820;2022-12-07T02:50:33;100513.74;;;0.49;100.00
42067;BME280;27734;47.028;28.820;2022-12-07T02:53:04;100506.00;;;0.49;100.00
42067;BME280;27734;47.028;28.820;2022-12-07T02:55:38;100493.09;;;0.49;100.00
42067;BME280;27734;47.028;28.820;2022-12-07T02:58:23;100487.16;;;0.50;100.00
42067;BME280;27734;47.028;28.820;2022-12-07T03:01:07;100486.23;;;0.49;100.00
42067;BME280;27734;47.028;28.820;2022-12-07T03:03:47;100478.48;;;0.49;100.00
42067;BME280;27734;47.028;28.820;2022-12-07T03:06:25;100481.19;;;0.51;100.00
42067;BME280;27734;47.028;28.820;2022-12-07T03:09:08;100480.41;;;0.52;100.00
42067;BME280;27734;47.028;28.820;2022-12-07T03:11:48;100475.25;;;0.52;100.00
42067;BME280;27734;47.028;28.820;2022-12-07T03:14:25;100474.44;;;0.53;100.00
42067;BME280;27734;47.028;28.820;2022-12-07T03:17:03;100473.67;;;0.54;100.00
42067;BME280;27734;47.028;28.820;2022-12-07T03:19:36;100476.37;;;0.56;100.00
42067;BME280;27734;47.028;28.820;2022-12-07T03:22:12;100469.39;;;0.54;100.00
42067;BME280;27734;47.028;28.820;2022-12-07T03:24:43;100466.04;;;0.56;100.00
42067;BME280;27734;47.028;28.820;2022-12-07T03:27:18;100468.62;;;0.56;100.00
42067;BME280;27734;47.028;28.820;2022-12-07T03:29:56;100469.50;;;0.56;100.00
42067;BME280;27734;47.028;28.820;2022-12-07T03:32:33;100466.16;;;0.57;100.00
42067;BME280;27734;47.028;28.820;2022-12-07T03:35:10;100466.27;;;0.59;100.00
42067;BME280;27734;47.028;28.820;2022-12-07T03:37:45;100468.97;;;0.60;100.00
42067;BME280;27734;47.028;28.820;2022-12-07T03:40:22;100464.69;;;0.61;100.00
42067;BME280;27734;47.028;28.820;2022-12-07T03:42:56;100459.64;;;0.62;100.00
42067;BME280;27734;47.028;28.820;2022-12-07T03:45:33;100461.45;;;0.63;100.00
42067;BME280;27734;47.028;28.820;2022-12-07T03:48:12;100461.56;;;0.65;100.00
42067;BME280;27734;47.028;28.820;2022-12-07T03:50:52;100459.87;;;0.65;100.00
42067;BME280;27734;47.028;28.820;2022-12-07T03:53:31;100465.14;;;0.67;100.00
42067;BME280;27734;47.028;28.820;2022-12-07T03:56:06;100455.73;;;0.67;100.00
42067;BME280;27734;47.028;28.820;2022-12-07T03:58:38;100462.67;;;0.68;100.00
42067;BME280;27734;47.028;28.820;2022-12-07T04:01:10;100460.20;;;0.70;100.00
42067;BME280;27734;47.028;28.820;2022-12-07T04:03:41;100453.38;;;0.70;100.00
42067;BME280;27734;47.028;28.820;2022-12-07T04:06:12;100448.22;;;0.70;100.00
42067;BME280;27734;47.028;28.820;2022-12-07T04:08:59;100456.19;;;0.74;100.00
42067;BME280;27734;47.028;28.820;2022-12-07T04:11:30;100451.80;;;0.73;100.00
42067;BME280;27734;47.028;28.820;2022-12-07T04:14:01;100451.02;;;0.74;100.00
42067;BME280;27734;47.028;28.820;2022-12-07T04:16:52;100443.39;;;0.75;100.00
42067;BME280;27734;47.028;28.820;2022-12-07T04:19:27;100442.58;;;0.76;100.00
42067;BME280;27734;47.028;28.820;2022-12-07T04:22:01;100438.34;;;0.77;100.00
42067;BME280;27734;47.028;28.820;2022-12-07T04:24:32;100444.50;;;0.79;100.00
42067;BME280;27734;47.028;28.820;2022-12-07T04:27:04;100435.98;;;0.80;100.00
42067;BME280;27734;47.028;28.820;2022-12-07T04:29:35;100441.27;;;0.81;100.00
42067;BME280;27734;47.028;28.820;2022-12-07T04:32:07;100438.67;;;0.81;100.00
42067;BME280;27734;47.028;28.820;2022-12-07T04:34:38;100441.38;;;0.83;100.00
42067;BME280;27734;47.028;28.820;2022-12-07T04:37:09;100439.02;;;0.86;100.00
42067;BME280;27734;47.028;28.820;2022-12-07T04:39:40;100443.38;;;0.87;100.00
42067;BME280;27734;47.028;28.820;2022-12-07T04:42:13;100440.02;;;0.88;100.00
42067;BME280;27734;47.028;28.820;2022-12-07T04:44:44;100440.13;;;0.89;100.00
42067;BME280;27734;47.028;28.820;2022-12-07T04:47:15;100439.35;;;0.91;100.00
42067;BME280;27734;47.028;28.820;2022-12-07T04:49:46;100444.63;;;0.92;100.00
42067;BME280;27734;47.028;28.820;2022-12-07T04:52:18;100430.91;;;0.93;100.00
42067;BME280;27734;47.028;28.820;2022-12-07T04:54:49;100430.13;;;0.94;100.00
42067;BME280;27734;47.028;28.820;2022-12-07T04:57:20;100434.63;;;0.97;100.00
42067;BME280;27734;47.028;28.820;2022-12-07T04:59:51;100432.94;;;0.97;100.00
42067;BME280;27734;47.028;28.820;2022-12-07T05:02:22;100428.77;;;0.99;100.00
42067;BME280;27734;47.028;28.820;2022-12-07T05:04:53;100436.63;;;1.01;100.00
42067;BME280;27734;47.028;28.820;2022-12-07T05:07:24;100428.11;;;1.02;100.00
42067;BME280;27734;47.028;28.820;2022-12-07T05:09:55;100430.02;;;1.04;100.00
42067;BME280;27734;47.028;28.820;2022-12-07T05:12:26;100429.10;;;1.04;100.00
42067;BME280;27734;47.028;28.820;2022-12-07T05:14:57;100428.33;;;1.05;100.00
42067;BME280;27734;47.028;28.820;2022-12-07T05:17:29;100434.50;;;1.07;100.00
42067;BME280;27734;47.028;28.820;2022-12-07T05:20:00;100429.44;;;1.08;100.00
42067;BME280;27734;47.028;28.820;2022-12-07T05:22:31;100434.72;;;1.10;100.00
42067;BME280;27734;47.028;28.820;2022-12-07T05:25:02;100429.66;;;1.12;100.00
42067;BME280;27734;47.028;28.820;2022-12-07T05:27:36;100426.41;;;1.14;100.00
42067;BME280;27734;47.028;28.820;2022-12-07T05:30:10;100435.16;;;1.16;100.00
42067;BME280;27734;47.028;28.820;2022-12-07T05:32:42;100437.08;;;1.19;100.00
42067;BME280;27734;47.028;28.820;2022-12-07T05:35:13;100428.41;;;1.18;100.00
42067;BME280;27734;47.028;28.820;2022-12-07T05:37:44;100437.30;;;1.22;100.00
42067;BME280;27734;47.028;28.820;2022-12-07T05:40:16;100435.71;;;1.24;100.00
42067;BME280;27734;47.028;28.820;2022-12-07T05:42:48;100428.95;;;1.26;100.00
42067;BME280;27734;47.028;28.820;2022-12-07T05:45:19;100429.17;;;1.29;100.00
42067;BME280;27734;47.028;28.820;2022-12-07T05:47:51;100425.14;;;1.33;100.00
42067;BME280;27734;47.028;28.820;2022-12-07T05:50:22;100421.97;;;1.37;100.00
42067;BME280;27734;47.028;28.820;2022-12-07T05:53:03;100415.45;;;1.42;100.00
42067;BME280;27734;47.028;28.820;2022-12-07T05:55:34;100415.78;;;1.47;100.00
42067;BME280;27734;47.028;28.820;2022-12-07T05:58:05;100420.47;;;1.52;100.00
42067;BME280;27734;47.028;28.820;2022-12-07T06:00:55;100420.58;;;1.54;100.00
42067;BME280;27734;47.028;28.820;2022-12-07T06:03:26;100416.54;;;1.57;100.00
42067;BME280;27734;47.028;28.820;2022-12-07T06:05:57;100421.89;;;1.60;100.00
42067;BME280;27734;47.028;28.820;2022-12-07T06:08:28;100420.33;;;1.63;100.00
42067;BME280;27734;47.028;28.820;2022-12-07T06:11:00;100431.78;;;1.66;100.00
42067;BME280;27734;47.028;28.820;2022-12-07T06:13:45;100427.71;;;1.70;100.00
42067;BME280;27734;47.028;28.820;2022-12-07T06:16:16;100432.22;;;1.72;100.00
42067;BME280;27734;47.028;28.820;2022-12-07T06:18:47;100428.84;;;1.73;100.00
42067;BME280;27734;47.028;28.820;2022-12-07T06:21:18;100427.25;;;1.75;100.00
42067;BME280;27734;47.028;28.820;2022-12-07T06:23:50;100430.84;;;1.77;100.00
42067;BME280;27734;47.028;28.820;2022-12-07T06:26:21;100428.46;;;1.80;100.00
42067;BME280;27734;47.028;28.820;2022-12-07T06:28:53;100431.26;;;1.84;100.00
42067;BME280;27734;47.028;28.820;2022-12-07T06:31:24;100423.71;;;1.87;100.00
42067;BME280;27734;47.028;28.820;2022-12-07T06:34:00;100429.91;;;1.89;100.00
42067;BME280;27734;47.028;28.820;2022-12-07T06:36:31;100428.53;;;1.94;100.00
42067;BME280;27734;47.028;28.820;2022-12-07T06:39:03;100421.76;;;1.96;100.00
42067;BME280;27734;47.028;28.820;2022-12-07T06:41:35;100422.99;;;2.01;100.00
42067;BME280;27734;47.028;28.820;2022-12-07T06:44:07;100425.29;;;2.10;100.00
42067;BME280;27734;47.028;28.820;2022-12-07T06:49:30;100423.44;;;2.21;100.00
42067;BME280;27734;47.028;28.820;2022-12-07T06:52:08;100425.66;;;2.28;100.00
42067;BME280;27734;47.028;28.820;2022-12-07T06:54:40;100422.67;;;2.35;100.00
42067;BME280;27734;47.028;28.820;2022-12-07T06:57:11;100426.48;;;2.40;100.00
42067;BME280;27734;47.028;28.820;2022-12-07T06:59:42;100416.33;;;2.43;100.00
42067;BME280;27734;47.028;28.820;2022-12-07T07:02:13;100421.10;;;2.50;100.00
42067;BME280;27734;47.028;28.820;2022-12-07T07:04:45;100419.64;;;2.54;100.00
42067;BME280;27734;47.028;28.820;2022-12-07T07:07:16;100421.81;;;2.61;100.00
42067;BME280;27734;47.028;28.820;2022-12-07T07:09:47;100417.66;;;2.63;100.00
42067;BME280;27734;47.028;28.820;2022-12-07T07:12:18;100419.43;;;2.64;100.00
42067;BME280;27734;47.028;28.820;2022-12-07T07:14:50;100419.53;;;2.66;100.00
42067;BME280;27734;47.028;28.820;2022-12-07T07:17:21;100416.36;;;2.70;100.00
42067;BME280;27734;47.028;28.820;2022-12-07T07:19:54;100414.06;;;2.75;100.00
42067;BME280;27734;47.028;28.820;2022-12-07T07:22:25;100411.67;;;2.78;100.00
42067;BME280;27734;47.028;28.820;2022-12-07T07:25:17;100404.98;;;2.81;100.00
42067;BME280;27734;47.028;28.820;2022-12-07T07:27:48;100413.95;;;2.86;100.00
42067;BME280;27734;47.028;28.820;2022-12-07T07:30:22;100416.73;;;2.90;100.00
42067;BME280;27734;47.028;28.820;2022-12-07T07:32:57;100410.97;;;2.94;100.00
42067;BME280;27734;47.028;28.820;2022-12-07T07:35:30;100407.69;;;2.96;100.00
42067;BME280;27734;47.028;28.820;2022-12-07T07:38:02;100401.88;;;3.00;100.00
42067;BME280;27734;47.028;28.820;2022-12-07T07:40:34;100397.72;;;3.02;100.00
42067;BME280;27734;47.028;28.820;2022-12-07T07:43:06;100408.19;;;3.04;100.00
42067;BME280;27734;47.028;28.820;2022-12-07T07:45:40;100408.38;;;3.07;100.00
42067;BME280;27734;47.028;28.820;2022-12-07T07:48:12;100398.02;;;3.07;100.00
42067;BME280;27734;47.028;28.820;2022-12-07T07:50:44;100405.98;;;3.10;100.00
42067;BME280;27734;47.028;28.820;2022-12-07T07:53:15;100408.94;;;3.16;100.00
42067;BME280;27734;47.028;28.820;2022-12-07T07:55:53;100406.64;;;3.21;100.00
42067;BME280;27734;47.028;28.820;2022-12-07T07:58:27;100399.87;;;3.23;100.00
42067;BME280;27734;47.028;28.820;2022-12-07T08:01:05;100396.56;;;3.26;100.00
42067;BME280;27734;47.028;28.820;2022-12-07T08:03:37;100396.56;;;3.26;100.00
42067;BME280;27734;47.028;28.820;2022-12-07T08:06:23;100398.46;;;3.28;100.00
42067;BME280;27734;47.028;28.820;2022-12-07T08:08:57;100394.35;;;3.32;100.00
42067;BME280;27734;47.028;28.820;2022-12-07T08:11:30;100394.55;;;3.35;100.00
42067;BME280;27734;47.028;28.820;2022-12-07T08:14:23;100397.23;;;3.36;100.00
42067;BME280;27734;47.028;28.820;2022-12-07T08:17:04;100394.94;;;3.41;100.00
42067;BME280;27734;47.028;28.820;2022-12-07T08:19:57;100392.44;;;3.42;100.00
42067;BME280;27734;47.028;28.820;2022-12-07T08:22:35;100393.45;;;3.45;100.00
42067;BME280;27734;47.028;28.820;2022-12-07T08:25:17;100397.91;;;3.47;100.00
42067;BME280;27734;47.028;28.820;2022-12-07T08:27:49;100398.00;;;3.49;100.00
42067;BME280;27734;47.028;28.820;2022-12-07T08:30:30;100385.95;;;3.49;100.00
42067;BME280;27734;47.028;28.820;2022-12-07T08:33:10;100389.53;;;3.51;100.00
42067;BME280;27734;47.028;28.820;2022-12-07T08:35:52;100386.23;;;3.54;100.00
42067;BME280;27734;47.028;28.820;2022-12-07T08:38:40;100387.13;;;3.54;100.00
42067;BME280;27734;47.028;28.820;2022-12-07T08:41:53;100387.31;;;3.57;100.00
42067;BME280;27734;47.028;28.820;2022-12-07T08:48:04;100373.02;;;3.64;100.00
42067;BME280;27734;47.028;28.820;2022-12-07T08:55:14;100363.00;;;3.70;100.00
42067;BME280;27734;47.028;28.820;2022-12-07T09:01:10;100370.56;;;3.81;100.00
42067;BME280;27734;47.028;28.820;2022-12-07T09:04:53;100352.76;;;3.87;100.00
42067;BME280;27734;47.028;28.820;2022-12-07T09:07:41;100355.81;;;3.94;100.00
42067;BME280;27734;47.028;28.820;2022-12-07T09:13:41;100356.55;;;4.07;100.00
42067;BME280;27734;47.028;28.820;2022-12-07T09:26:28;100350.91;;;4.29;100.00
42067;BME280;27734;47.028;28.820;2022-12-07T09:29:22;100341.59;;;4.32;100.00
42067;BME280;27734;47.028;28.820;2022-12-07T09:32:01;100342.64;;;4.36;100.00
42067;BME280;27734;47.028;28.820;2022-12-07T09:34:41;100337.72;;;4.41;100.00
42067;BME280;27734;47.028;28.820;2022-12-07T09:37:51;100341.41;;;4.44;100.00
42067;BME280;27734;47.028;28.820;2022-12-07T09:40:47;100336.39;;;4.47;100.00
42067;BME280;27734;47.028;28.820;2022-12-07T09:43:25;100330.62;;;4.53;100.00
42067;BME280;27734;47.028;28.820;2022-12-07T09:45:57;100335.37;;;4.60;100.00
42067;BME280;27734;47.028;28.820;2022-12-07T09:48:39;100320.30;;;4.70;100.00
42067;BME280;27734;47.028;28.820;2022-12-07T09:51:17;100316.34;;;4.76;100.00
42067;BME280;27734;47.028;28.820;2022-12-07T09:53:51;100320.16;;;4.83;100.00
42067;BME280;27734;47.028;28.820;2022-12-07T09:56:25;100315.30;;;4.89;100.00
42067;BME280;27734;47.028;28.820;2022-12-07T09:59:02;100316.56;;;4.96;100.00
42067;BME280;27734;47.028;28.820;2022-12-07T10:01:37;100315.19;;;5.02;100.00
42067;BME280;27734;47.028;28.820;2022-12-07T10:04:13;100309.35;;;5.07;100.00
42067;BME280;27734;47.028;28.820;2022-12-07T10:06:46;100300.17;;;5.13;100.00
42067;BME280;27734;47.028;28.820;2022-12-07T10:09:19;100305.70;;;5.19;100.00
42067;BME280;27734;47.028;28.820;2022-12-07T10:12:07;100307.67;;;5.24;100.00
42067;BME280;27734;47.028;28.820;2022-12-07T10:14:53;100306.36;;;5.32;100.00
42067;BME280;27734;47.028;28.820;2022-12-07T10:17:39;100299.61;;;5.35;100.00
42067;BME280;27734;47.028;28.820;2022-12-07T10:20:22;100295.37;;;5.37;100.00
42067;BME280;27734;47.028;28.820;2022-12-07T10:23:14;100296.45;;;5.41;100.00
42067;BME280;27734;47.028;28.820;2022-12-07T10:26:01;100300.18;;;5.46;100.00
42067;BME280;27734;47.028;28.820;2022-12-07T10:29:20;100300.27;;;5.48;100.00
42067;BME280;27734;47.028;28.820;2022-12-07T10:36:15;100288.61;;;5.57;100.00
42067;BME280;27734;47.028;28.820;2022-12-07T10:39:11;100284.65;;;5.64;100.00
42067;BME280;27734;47.028;28.820;2022-12-07T10:42:03;100296.27;;;5.71;100.00
42067;BME280;27734;47.028;28.820;2022-12-07T10:44:39;100292.09;;;5.74;100.00
42067;BME280;27734;47.028;28.820;2022-12-07T10:47:26;100301.03;;;5.80;100.00
42067;BME280;27734;47.028;28.820;2022-12-07T10:50:17;100301.03;;;5.80;100.00
42067;BME280;27734;47.028;28.820;2022-12-07T10:56:29;100298.58;;;5.83;100.00
42067;BME280;27734;47.028;28.820;2022-12-07T10:59:34;100293.38;;;5.83;100.00
42067;BME280;27734;47.028;28.820;2022-12-07T11:02:23;100295.41;;;5.88;100.00
42067;BME280;27734;47.028;28.820;2022-12-07T11:05:04;100289.48;;;5.91;100.00
42067;BME280;27734;47.028;28.820;2022-12-07T11:07:46;100285.31;;;5.94;100.00
42067;BME280;27734;47.028;28.820;2022-12-07T11:10:35;100281.17;;;5.98;100.00
42067;BME280;27734;47.028;28.820;2022-12-07T11:13:22;100286.46;;;6.00;100.00
42067;BME280;27734;47.028;28.820;2022-12-07T11:16:09;100284.77;;;6.00;100.00
42067;BME280;27734;47.028;28.820;2022-12-07T11:19:06;100281.33;;;6.01;100.00
42067;BME280;27734;47.028;28.820;2022-12-07T11:21:56;100287.45;;;6.02;100.00
42067;BME280;27734;47.028;28.820;2022-12-07T11:24:35;100277.03;;;6.02;100.00
42067;BME280;27734;47.028;28.820;2022-12-07T11:27:24;100281.17;;;5.98;100.00
42067;BME280;27734;47.028;28.820;2022-12-07T11:30:10;100287.99;;;5.96;100.00
42067;BME280;27734;47.028;28.820;2022-12-07T11:32:54;100285.23;;;5.93;100.00
42067;BME280;27734;47.028;28.820;2022-12-07T11:35:37;100286.80;;;5.89;100.00
42067;BME280;27734;47.028;28.820;2022-12-07T11:38:14;100277.11;;;5.87;100.00
42067;BME280;27734;47.028;28.820;2022-12-07T11:40:49;100278.83;;;5.86;100.00
42067;BME280;27734;47.028;28.820;2022-12-07T11:43:27;100278.75;;;5.85;100.00
42067;BME280;27734;47.028;28.820;2022-12-07T11:46:12;100285.72;;;5.86;100.00
42067;BME280;27734;47.028;28.820;2022-12-07T11:48:49;100274.73;;;5.91;100.00
42067;BME280;27734;47.028;28.820;2022-12-07T11:51:24;100267.96;;;5.95;100.00
42067;BME280;27734;47.028;28.820;2022-12-07T11:54:04;100262.94;;;5.98;100.00
42067;BME280;27734;47.028;28.820;2022-12-07T11:56:45;100257.73;;;5.98;100.00
42067;BME280;27734;47.028;28.820;2022-12-07T11:59:22;100258.72;;;6.00;100.00
42067;BME280;27734;47.028;28.820;2022-12-07T12:02:16;100257.23;;;6.05;100.00
42067;BME280;27734;47.028;28.820;2022-12-07T12:04:58;100266.92;;;6.08;100.00
42067;BME280;27734;47.028;28.820;2022-12-07T12:07:32;100275.77;;;6.11;100.00
42067;BME280;27734;47.028;28.820;2022-12-07T12:10:19;100266.23;;;6.12;100.00
42067;BME280;27734;47.028;28.820;2022-12-07T12:13:12;100271.52;;;6.14;100.00
42067;BME280;27734;47.028;28.820;2022-12-07T12:15:58;100266.39;;;6.15;100.00
42067;BME280;27734;47.028;28.820;2022-12-07T12:18:49;100275.20;;;6.17;100.00
42067;BME280;27734;47.028;28.820;2022-12-07T12:21:30;100267.38;;;6.17;100.00
42067;BME280;27734;47.028;28.820;2022-12-07T12:24:11;100270.06;;;6.19;100.00
42067;BME280;27734;47.028;28.820;2022-12-07T12:26:52;100261.33;;;6.18;100.00
42067;BME280;27734;47.028;28.820;2022-12-07T12:29:30;100263.05;;;6.18;100.00
42067;BME280;27734;47.028;28.820;2022-12-07T12:32:17;100266.47;;;6.17;100.00
42067;BME280;27734;47.028;28.820;2022-12-07T12:35:20;100269.15;;;6.18;100.00
42067;BME280;27734;47.028;28.820;2022-12-07T12:37:55;100271.83;;;6.20;100.00
42067;BME280;27734;47.028;28.820;2022-12-07T12:40:48;100274.44;;;6.20;100.00
42067;BME280;27734;47.028;28.820;2022-12-07T12:43:52;100265.81;;;6.21;100.00
42067;BME280;27734;47.028;28.820;2022-12-07T12:46:48;100275.50;;;6.23;100.00
42067;BME280;27734;47.028;28.820;2022-12-07T12:49:43;100277.34;;;6.26;100.00
42067;BME280;27734;47.028;28.820;2022-12-07T12:52:51;100279.14;;;6.27;100.00
42067;BME280;27734;47.028;28.820;2022-12-07T12:55:45;100281.98;;;6.32;100.00
42067;BME280;27734;47.028;28.820;2022-12-07T12:58:35;100283.74;;;6.33;100.00
42067;BME280;27734;47.028;28.820;2022-12-07T13:04:47;100262.85;;;6.31;100.00
42067;BME280;27734;47.028;28.820;2022-12-07T13:10:43;100260.25;;;6.31;100.00
42067;BME280;27734;47.028;28.820;2022-12-07T13:13:36;100264.39;;;6.27;100.00
42067;BME280;27734;47.028;28.820;2022-12-07T13:22:50;100281.52;;;6.22;100.00
42067;BME280;27734;47.028;28.820;2022-12-07T13:25:31;100284.94;;;6.21;100.00
42067;BME280;27734;47.028;28.820;2022-12-07T13:28:24;100278.84;;;6.21;100.00
42067;BME280;27734;47.028;28.820;2022-12-07T13:31:11;100276.16;;;6.19;100.00
42067;BME280;27734;47.028;28.820;2022-12-07T13:33:44;100262.25;;;6.19;100.00
42067;BME280;27734;47.028;28.820;2022-12-07T13:36:25;100269.15;;;6.18;100.00
42067;BME280;27734;47.028;28.820;2022-12-07T13:39:11;100267.23;;;6.14;100.00
42067;BME280;27734;47.028;28.820;2022-12-07T13:41:52;100268.77;;;6.10;100.00
42067;BME280;27734;47.028;28.820;2022-12-07T13:44:39;100266.09;;;6.09;100.00
42067;BME280;27734;47.028;28.820;2022-12-07T13:47:15;100267.66;;;6.05;100.00
42067;BME280;27734;47.028;28.820;2022-12-07T13:49:51;100261.41;;;6.02;100.00
42067;BME280;27734;47.028;28.820;2022-12-07T13:52:44;100264.66;;;5.98;100.00
42067;BME280;27734;47.028;28.820;2022-12-07T13:55:26;100268.08;;;5.97;100.00
42067;BME280;27734;47.028;28.820;2022-12-07T13:57:58;100280.98;;;5.95;100.00
42067;BME280;27734;47.028;28.820;2022-12-07T14:00:36;100275.70;;;5.93;100.00
42067;BME280;27734;47.028;28.820;2022-12-07T14:03:37;100283.43;;;5.92;100.00
42067;BME280;27734;47.028;28.820;2022-12-07T14:06:26;100287.68;;;5.90;100.00
42067;BME280;27734;47.028;28.820;2022-12-07T14:09:22;100288.56;;;5.90;100.00
42067;BME280;27734;47.028;28.820;2022-12-07T14:11:56;100284.19;;;5.89;100.00
42067;BME280;27734;47.028;28.820;2022-12-07T14:14:32;100292.73;;;5.87;100.00
42067;BME280;27734;47.028;28.820;2022-12-07T14:17:15;100296.90;;;5.83;100.00
42067;BME280;27734;47.028;28.820;2022-12-07T14:19:50;100308.92;;;5.81;100.00
42067;BME280;27734;47.028;28.820;2022-12-07T14:22:30;100312.28;;;5.79;100.00
42067;BME280;27734;47.028;28.820;2022-12-07T14:25:24;100314.89;;;5.79;100.00
42067;BME280;27734;47.028;28.820;2022-12-07T14:28:00;100318.45;;;5.81;100.00